createdAt,value
2023-02-09T00:01:14.477Z,86.50
2023-02-09T00:03:43.729Z,86.50
2023-02-09T00:06:15.594Z,86.40
2023-02-09T00:08:44.797Z,86.40
2023-02-09T00:11:16.835Z,86.10
2023-02-09T00:13:44.816Z,86.10
2023-02-09T00:16:15.575Z,86.10
2023-02-09T00:18:44.302Z,86.40
2023-02-09T00:21:13.391Z,86.60
2023-02-09T00:23:42.937Z,87.00
2023-02-09T00:26:13.173Z,87.20
2023-02-09T00:28:45.314Z,87.30
2023-02-09T00:31:15.630Z,87.20
2023-02-09T00:33:44.409Z,87.20
2023-02-09T00:36:15.560Z,87.40
2023-02-09T00:38:44.931Z,87.50
2023-02-09T00:41:14.383Z,87.60
2023-02-09T00:43:43.167Z,87.80
2023-02-09T00:46:12.126Z,87.90
2023-02-09T00:48:42.282Z,88.20
2023-02-09T00:51:10.954Z,88.20
2023-02-09T00:53:39.677Z,88.00
2023-02-09T00:56:08.862Z,88.30
2023-02-09T00:58:37.488Z,88.30
2023-02-09T01:01:06.339Z,88.50
2023-02-09T01:03:34.926Z,88.50
2023-02-09T01:06:05.399Z,88.40
2023-02-09T01:08:34.012Z,88.40
2023-02-09T01:11:08.118Z,88.60
2023-02-09T01:13:36.728Z,88.90
2023-02-09T01:16:07.821Z,89.30
2023-02-09T01:18:36.507Z,89.40
2023-02-09T01:21:12.040Z,89.20
2023-02-09T01:23:40.713Z,89.20
2023-02-09T01:26:13.135Z,89.10
2023-02-09T01:28:42.433Z,89.20
2023-02-09T01:31:21.185Z,88.90
2023-02-09T01:33:52.535Z,88.70
2023-02-09T01:36:23.327Z,88.60
2023-02-09T01:38:52.264Z,88.60
2023-02-09T01:41:21.161Z,88.60
2023-02-09T01:43:58.032Z,88.70
2023-02-09T01:46:28.172Z,89.10
2023-02-09T01:49:04.778Z,88.50
2023-02-09T01:51:39.599Z,88.50
2023-02-09T01:54:10.782Z,88.50
2023-02-09T01:56:44.067Z,88.60
2023-02-09T01:59:15.322Z,88.50
2023-02-09T02:01:45.710Z,88.60
2023-02-09T02:04:16.151Z,88.90
2023-02-09T02:06:46.698Z,89.30
2023-02-09T02:09:17.681Z,89.70
2023-02-09T02:11:49.515Z,89.50
2023-02-09T02:14:33.215Z,89.50
2023-02-09T02:17:14.332Z,89.60
2023-02-09T02:20:16.587Z,89.60
2023-02-09T02:23:03.685Z,89.80
2023-02-09T02:26:10.214Z,90.00
2023-02-09T02:28:48.735Z,90.00
2023-02-09T02:31:52.378Z,90.10
2023-02-09T02:34:27.028Z,90.40
2023-02-09T02:37:03.673Z,90.50
2023-02-09T02:39:40.631Z,90.40
2023-02-09T02:42:32.740Z,90.50
2023-02-09T02:45:05.728Z,90.60
2023-02-09T02:47:40.932Z,90.60
2023-02-09T02:50:14.972Z,90.60
2023-02-09T02:52:47.936Z,90.60
2023-02-09T02:55:19.766Z,90.60
2023-02-09T02:57:53.446Z,90.90
2023-02-09T03:00:27.456Z,91.00
2023-02-09T03:03:00.883Z,90.80
2023-02-09T03:05:30.397Z,91.00
2023-02-09T03:07:59.006Z,91.20
2023-02-09T03:10:30.618Z,91.30
2023-02-09T03:13:14.564Z,91.40
2023-02-09T03:19:51.354Z,91.20
2023-02-09T03:22:28.455Z,91.20
2023-02-09T03:25:02.210Z,91.10
2023-02-09T03:27:34.340Z,91.20
2023-02-09T03:30:05.896Z,91.20
2023-02-09T03:32:39.322Z,91.30
2023-02-09T03:35:13.022Z,91.50
2023-02-09T03:37:41.669Z,91.60
2023-02-09T03:40:11.368Z,91.70
2023-02-09T03:42:40.459Z,91.70
2023-02-09T03:45:09.534Z,91.80
2023-02-09T03:47:38.230Z,91.80
2023-02-09T03:50:10.115Z,92.00
2023-02-09T03:52:39.422Z,92.10
2023-02-09T03:55:08.738Z,92.20
2023-02-09T03:57:39.357Z,92.40
2023-02-09T04:00:09.837Z,92.50
2023-02-09T04:02:43.499Z,92.60
2023-02-09T04:05:14.419Z,92.60
2023-02-09T04:07:43.468Z,92.40
2023-02-09T04:10:12.132Z,92.40
2023-02-09T04:12:40.753Z,92.60
2023-02-09T04:15:10.130Z,92.70
2023-02-09T04:17:38.857Z,92.80
2023-02-09T04:20:07.993Z,92.90
2023-02-09T04:22:38.182Z,92.60
2023-02-09T04:25:07.388Z,92.60
2023-02-09T04:27:36.136Z,92.50
2023-02-09T04:30:04.861Z,92.50
2023-02-09T04:32:33.405Z,92.60
2023-02-09T04:35:02.220Z,92.80
2023-02-09T04:37:30.824Z,92.90
2023-02-09T04:40:00.950Z,93.00
2023-02-09T04:42:29.742Z,92.90
2023-02-09T04:44:58.255Z,93.10
2023-02-09T04:47:26.924Z,93.20
2023-02-09T04:49:55.747Z,93.20
2023-02-09T04:52:24.394Z,93.20
2023-02-09T04:54:53.068Z,93.20
2023-02-09T04:57:40.960Z,93.20
2023-02-09T05:00:11.139Z,93.30
2023-02-09T05:02:40.243Z,93.30
2023-02-09T05:05:09.479Z,93.40
2023-02-09T05:07:40.611Z,93.50
2023-02-09T05:10:09.772Z,93.40
2023-02-09T05:12:39.952Z,93.50
2023-02-09T05:15:09.151Z,93.60
2023-02-09T05:17:37.884Z,93.70
2023-02-09T05:20:07.756Z,93.80
2023-02-09T05:22:36.533Z,94.00
2023-02-09T05:25:05.603Z,93.90
2023-02-09T05:27:34.104Z,94.00
2023-02-09T05:30:04.588Z,94.10
2023-02-09T05:32:33.445Z,94.20
2023-02-09T05:35:02.192Z,94.40
2023-02-09T05:37:34.083Z,94.50
2023-02-09T05:40:02.847Z,94.50
2023-02-09T05:42:31.914Z,94.70
2023-02-09T05:45:00.461Z,94.70
2023-02-09T05:47:30.860Z,94.80
2023-02-09T05:49:59.758Z,94.60
2023-02-09T05:52:28.304Z,94.40
2023-02-09T05:54:57.069Z,94.40
2023-02-09T05:57:25.890Z,94.40
2023-02-09T05:59:54.546Z,94.40
2023-02-09T06:02:23.615Z,94.40
2023-02-09T06:04:53.801Z,94.40
2023-02-09T06:07:22.620Z,94.60
2023-02-09T06:09:51.459Z,94.80
2023-02-09T06:12:20.273Z,95.10
2023-02-09T06:14:51.903Z,95.10
2023-02-09T06:17:20.573Z,94.70
2023-02-09T06:19:49.224Z,94.50
2023-02-09T06:22:19.514Z,94.90
2023-02-09T06:24:48.129Z,95.10
2023-02-09T06:27:16.642Z,95.20
2023-02-09T06:29:45.334Z,95.10
2023-02-09T06:32:13.890Z,95.30
2023-02-09T06:34:44.992Z,95.50
2023-02-09T06:37:34.076Z,95.60
2023-02-09T06:40:11.115Z,95.60
2023-02-09T06:43:19.988Z,95.50
2023-02-09T06:50:03.254Z,95.40
2023-02-09T07:04:00.948Z,95.70
2023-02-09T07:07:47.343Z,95.60
2023-02-09T07:10:28.977Z,95.80
2023-02-09T07:13:01.035Z,96.30
2023-02-09T07:15:50.168Z,96.80
2023-02-09T07:18:25.762Z,96.80
2023-02-09T07:25:20.882Z,97.00
2023-02-09T07:27:58.492Z,96.80
2023-02-09T07:30:36.353Z,96.80
2023-02-09T07:37:31.621Z,95.90
2023-02-09T07:40:38.071Z,95.60
2023-02-09T07:48:19.041Z,95.10
2023-02-09T07:51:26.320Z,94.90
2023-02-09T07:54:42.139Z,94.40
2023-02-09T07:57:54.783Z,94.00
2023-02-09T08:09:28.452Z,93.20
2023-02-09T08:27:06.010Z,91.10
2023-02-09T08:29:39.382Z,90.80
2023-02-09T08:35:37.355Z,90.20
2023-02-09T08:38:27.860Z,90.00
2023-02-09T08:40:57.611Z,90.00
2023-02-09T08:43:30.277Z,89.90
2023-02-09T08:50:21.000Z,89.20
2023-02-09T08:57:12.759Z,88.90
2023-02-09T08:59:40.911Z,88.70
2023-02-09T09:08:55.713Z,87.80
2023-02-09T09:11:25.079Z,87.80
2023-02-09T09:13:53.832Z,87.50
2023-02-09T09:16:39.942Z,87.20
2023-02-09T09:19:12.041Z,87.10
2023-02-09T09:25:28.247Z,87.10
2023-02-09T09:31:47.165Z,86.70
2023-02-09T09:39:00.972Z,86.60
2023-02-09T09:41:34.412Z,86.10
2023-02-09T09:44:25.928Z,86.10
2023-02-09T09:47:01.311Z,85.90
2023-02-09T09:49:53.989Z,85.70
2023-02-09T09:52:33.822Z,85.40
2023-02-09T09:55:18.824Z,85.40
2023-02-09T09:57:50.230Z,85.10
2023-02-09T10:00:22.046Z,85.00
2023-02-09T10:02:52.533Z,84.80
2023-02-09T10:10:48.015Z,83.90
2023-02-09T10:22:07.135Z,81.90
2023-02-09T10:24:39.965Z,81.10
2023-02-09T10:27:16.219Z,80.90
2023-02-09T10:29:46.393Z,80.50
2023-02-09T10:32:18.817Z,80.50
2023-02-09T10:34:51.282Z,80.30
2023-02-09T10:37:35.621Z,80.10
2023-02-09T10:40:15.603Z,80.30
2023-02-09T10:42:55.528Z,79.70
2023-02-09T10:45:30.357Z,79.70
2023-02-09T10:48:01.661Z,79.50
2023-02-09T10:50:32.141Z,79.20
2023-02-09T10:53:04.364Z,79.20
2023-02-09T10:55:39.026Z,79.00
2023-02-09T10:58:19.595Z,78.60
2023-02-09T11:00:53.040Z,78.40
2023-02-09T11:03:37.865Z,78.10
2023-02-09T11:06:19.116Z,78.60
2023-02-09T11:08:55.734Z,78.60
2023-02-09T11:11:33.426Z,78.20
2023-02-09T11:14:05.783Z,78.10
2023-02-09T11:16:55.401Z,77.80
2023-02-09T11:19:43.875Z,77.40
2023-02-09T11:22:16.298Z,76.80
2023-02-09T11:25:07.849Z,76.30
2023-02-09T11:28:02.303Z,75.30
2023-02-09T11:30:55.965Z,74.80
2023-02-09T11:33:33.255Z,75.10
2023-02-09T11:36:17.693Z,74.00
2023-02-09T11:38:52.446Z,73.50
2023-02-09T11:41:48.746Z,73.80
2023-02-09T11:44:29.439Z,74.10
2023-02-09T11:50:18.059Z,74.00
2023-02-09T11:52:55.150Z,73.40
2023-02-09T11:55:38.193Z,73.70
2023-02-09T11:58:32.155Z,73.00
2023-02-09T12:01:15.463Z,72.90
2023-02-09T12:03:56.648Z,72.90
2023-02-09T12:06:28.695Z,72.80
2023-02-09T12:09:14.158Z,72.70
2023-02-09T12:11:57.909Z,72.30
2023-02-09T12:14:45.094Z,72.00
2023-02-09T12:17:19.959Z,71.70
2023-02-09T12:20:00.926Z,72.30
2023-02-09T12:23:03.319Z,72.00
2023-02-09T12:26:00.127Z,72.00
2023-02-09T12:28:45.818Z,72.10
2023-02-09T12:31:24.047Z,71.30
2023-02-09T12:34:24.011Z,71.00
2023-02-09T12:37:29.281Z,70.30
2023-02-09T12:40:24.279Z,69.50
2023-02-09T12:43:30.095Z,69.50
2023-02-09T12:46:24.529Z,69.20
2023-02-09T12:49:15.276Z,68.40
2023-02-09T12:52:22.993Z,67.10
2023-02-09T12:55:01.167Z,66.20
2023-02-09T12:58:01.361Z,66.20
2023-02-09T13:01:04.407Z,66.10
2023-02-09T13:03:52.473Z,66.30
2023-02-09T13:06:34.907Z,66.80
2023-02-09T13:09:19.620Z,68.20
2023-02-09T13:14:58.096Z,69.20
2023-02-09T13:46:36.273Z,65.90
2023-02-09T13:49:14.599Z,67.00
2023-02-09T13:51:43.623Z,66.60
2023-02-09T13:54:21.123Z,66.50
2023-02-09T13:56:50.052Z,66.60
2023-02-09T13:59:19.068Z,66.30
2023-02-09T14:01:50.901Z,65.50
2023-02-09T14:04:25.674Z,65.20
2023-02-09T14:07:01.957Z,65.70
2023-02-09T14:09:34.903Z,66.40
2023-02-09T14:12:09.424Z,67.20
2023-02-09T14:15:03.259Z,67.10
2023-02-09T14:17:35.970Z,67.50
2023-02-09T14:20:05.670Z,68.30
2023-02-09T14:22:36.762Z,68.70
2023-02-09T14:25:20.313Z,69.80
2023-02-09T15:13:04.701Z,74.20
2023-02-09T15:15:38.526Z,74.60
2023-02-09T15:18:08.940Z,74.60
2023-02-09T15:20:39.822Z,74.60
2023-02-09T15:23:09.892Z,74.90
2023-02-09T15:25:43.292Z,75.10
2023-02-09T15:28:28.479Z,75.20
2023-02-09T15:30:59.672Z,75.10
2023-02-09T15:33:29.771Z,75.50
2023-02-09T15:36:00.293Z,75.70
2023-02-09T15:38:29.487Z,76.10
2023-02-09T15:41:15.603Z,76.50
2023-02-09T15:44:03.113Z,76.60
2023-02-09T15:46:49.057Z,77.10
2023-02-09T15:49:21.134Z,77.50
2023-02-09T15:51:51.538Z,78.20
2023-02-09T15:54:23.220Z,78.60
2023-02-09T15:56:53.943Z,78.90
2023-02-09T15:59:26.631Z,79.20
2023-02-09T16:01:58.971Z,79.60
2023-02-09T16:04:29.779Z,79.60
2023-02-09T16:06:59.389Z,79.60
2023-02-09T16:09:31.734Z,79.70
2023-02-09T16:12:01.465Z,80.10
2023-02-09T16:14:32.742Z,80.40
2023-02-09T16:17:02.487Z,80.40
2023-02-09T16:19:32.080Z,80.50
2023-02-09T16:22:04.783Z,80.70
2023-02-09T16:24:38.789Z,81.00
2023-02-09T16:27:16.478Z,81.20
2023-02-09T16:29:47.608Z,81.20
2023-02-09T16:32:19.409Z,81.50
2023-02-09T16:34:48.795Z,81.70
2023-02-09T16:37:20.808Z,82.10
2023-02-09T16:39:49.948Z,82.60
2023-02-09T16:42:21.282Z,83.00
2023-02-09T18:12:24.258Z,87.40
2023-02-09T18:14:54.995Z,87.20
2023-02-09T18:17:24.528Z,87.00
2023-02-09T18:19:54.560Z,87.00
2023-02-09T18:22:24.093Z,87.00
2023-02-09T18:24:54.765Z,86.80
2023-02-09T18:27:26.110Z,86.60
2023-02-09T18:29:55.820Z,86.60
2023-02-09T18:32:26.609Z,86.60
2023-02-09T18:34:55.914Z,86.70
2023-02-09T18:37:25.473Z,86.80
2023-02-09T18:39:56.456Z,86.70
2023-02-09T18:42:27.304Z,86.80
2023-02-09T18:44:56.634Z,86.80
2023-02-09T18:47:26.044Z,87.00
2023-02-09T18:49:55.000Z,87.10
2023-02-09T18:52:25.832Z,87.30
2023-02-09T18:54:55.009Z,87.50
2023-02-09T18:57:24.058Z,87.80
2023-02-09T18:59:55.019Z,88.30
2023-02-09T19:02:24.522Z,88.30
2023-02-09T19:04:53.393Z,88.40
2023-02-09T19:07:22.827Z,88.50
2023-02-09T19:09:52.274Z,88.50
2023-02-09T19:12:21.344Z,88.60
2023-02-09T19:14:50.778Z,89.20
2023-02-09T19:17:22.730Z,89.80
2023-02-09T19:19:52.398Z,90.20
2023-02-09T19:22:23.466Z,90.40
2023-02-09T19:24:53.457Z,90.40
2023-02-09T19:27:22.649Z,90.50
2023-02-09T19:29:55.006Z,90.40
2023-02-09T19:32:26.943Z,90.80
2023-02-09T19:34:56.220Z,90.50
2023-02-09T19:37:26.565Z,90.60
2023-02-09T19:40:05.334Z,90.70
2023-02-09T19:42:34.853Z,90.70
2023-02-09T19:45:04.015Z,90.70
2023-02-09T19:47:34.729Z,90.80
2023-02-09T19:50:05.504Z,91.20
2023-02-09T19:52:38.467Z,91.30
2023-02-09T19:55:09.327Z,91.40
2023-02-09T19:57:38.820Z,91.60
2023-02-09T20:00:08.598Z,91.90
2023-02-09T20:02:40.929Z,92.00
2023-02-09T20:05:11.219Z,92.20
2023-02-09T20:07:40.900Z,92.30
2023-02-09T20:10:10.481Z,92.50
2023-02-09T20:12:39.616Z,92.60
2023-02-09T20:15:09.394Z,92.70
2023-02-09T20:17:39.909Z,92.80
2023-02-09T20:20:13.444Z,92.90
2023-02-09T20:22:42.663Z,93.10
2023-02-09T20:25:13.126Z,93.40
2023-02-09T20:27:43.042Z,93.50
2023-02-09T20:30:13.502Z,93.60
2023-02-09T20:32:44.031Z,93.70
2023-02-09T20:35:14.999Z,93.60
2023-02-09T20:37:44.639Z,93.60
2023-02-09T20:40:14.939Z,93.70
2023-02-09T20:43:01.889Z,93.80
2023-02-09T20:45:48.807Z,93.90
2023-02-09T20:48:19.871Z,93.80
2023-02-09T20:50:49.599Z,93.90
2023-02-09T20:53:18.750Z,94.00
2023-02-09T20:55:48.913Z,94.10
2023-02-09T20:58:19.432Z,94.20
2023-02-09T21:00:49.686Z,94.30
2023-02-09T21:03:21.217Z,94.40
2023-02-09T21:05:51.437Z,94.60
2023-02-09T21:08:21.482Z,94.60
2023-02-09T21:10:57.652Z,94.90
2023-02-09T21:13:27.277Z,94.90
2023-02-09T21:15:57.906Z,94.90
2023-02-09T21:18:30.276Z,95.00
2023-02-09T21:21:00.665Z,95.10
2023-02-09T21:23:29.641Z,95.30
2023-02-09T21:26:04.474Z,95.30
2023-02-09T21:28:33.582Z,95.30
2023-02-09T21:31:12.358Z,95.30
2023-02-09T21:33:43.031Z,95.40
2023-02-09T21:36:12.087Z,95.50
2023-02-09T21:38:43.300Z,95.60
2023-02-09T21:41:33.428Z,95.50
2023-02-09T21:44:03.040Z,95.60
2023-02-09T21:46:33.614Z,95.60
2023-02-09T21:49:05.764Z,95.90
2023-02-09T21:51:34.574Z,95.90
2023-02-09T21:54:03.504Z,96.00
2023-02-09T21:56:32.595Z,96.10
2023-02-09T21:59:02.244Z,96.10
2023-02-09T22:01:32.243Z,96.30
2023-02-09T22:04:02.993Z,96.50
2023-02-09T22:06:32.561Z,96.70
2023-02-09T22:09:03.774Z,97.00
2023-02-09T22:11:33.317Z,97.40
2023-02-09T22:14:02.142Z,97.60
2023-02-09T22:16:31.084Z,97.80
2023-02-09T22:19:00.722Z,98.00
2023-02-09T22:21:31.086Z,98.20
2023-02-09T22:23:59.848Z,98.30
2023-02-09T22:26:29.235Z,98.50
2023-02-09T22:28:58.686Z,98.60
2023-02-09T22:31:27.486Z,98.70
2023-02-09T22:33:58.613Z,98.60
2023-02-09T22:36:27.959Z,98.70
2023-02-09T22:38:58.390Z,98.70
2023-02-09T22:41:28.251Z,98.90
2023-02-09T22:43:58.703Z,98.90
2023-02-09T22:46:30.422Z,98.90
2023-02-09T22:49:01.244Z,99.00
2023-02-09T22:51:32.678Z,99.10
2023-02-09T22:54:03.656Z,99.30
2023-02-09T22:56:33.131Z,99.50
2023-02-09T22:59:03.265Z,99.60
2023-02-09T23:01:31.892Z,99.70
2023-02-09T23:04:01.161Z,99.90
2023-02-09T23:06:31.403Z,99.90
2023-02-09T23:09:03.111Z,99.90
2023-02-09T23:11:33.138Z,99.90
2023-02-09T23:14:10.784Z,99.90
2023-02-09T23:16:41.141Z,99.90
2023-02-09T23:19:13.449Z,99.90
2023-02-09T23:21:44.559Z,99.90
2023-02-09T23:24:16.082Z,99.90
2023-02-09T23:26:45.079Z,99.90
2023-02-09T23:29:16.728Z,99.90
2023-02-09T23:31:46.926Z,99.90
2023-02-09T23:34:18.238Z,99.90
2023-02-09T23:36:50.253Z,99.90
2023-02-09T23:39:23.219Z,99.90
2023-02-09T23:41:52.797Z,99.90
2023-02-09T23:44:22.120Z,99.90
2023-02-09T23:46:51.114Z,99.90
2023-02-09T23:49:20.306Z,99.90
2023-02-09T23:51:49.249Z,99.90
2023-02-09T23:54:19.724Z,99.90
2023-02-09T23:56:50.325Z,99.90
2023-02-09T23:59:19.216Z,99.90
